KPHF/PHF METAR and TAF weather

Enter ICAO airport designator
Station Type Date Time Source
KPHF METAR 2022/10/01 07:54 UTC NOAA

KPHF 010754Z 04004KT 1/2SM FG VV003 21/21 A2973 RMK AO2 SLP067 T02060206


Station Type Date Time Source
KPHF Decoded METAR 2022/10/01 07:54 UTC NOAA

WILLIAMSBURG INTERNATIONAL AIRPORT , VA, United States (KPHF) 37-08N 76-30W 12M
Oct 01, 2022 - 03:54 AM EDT / 2022.10.01 0754 UTC
Wind: from the NE (040 degrees) at 5 MPH (4 KT):0
Visibility: 1/2 mile(s):0
Sky conditions: obscured
Weather: fog
Temperature: 69.1 F (20.6 C)
Dew Point: 69.1 F (20.6 C)
Relative Humidity: 100%
Pressure (altimeter): 29.73 in. Hg (1006 hPa)
ob: KPHF 010754Z 04004KT 1/2SM FG VV003 21/21 A2973 RMK AO2 SLP067 T02060206
cycle: 8

Station Type Date Time Source
KPHF TAF 2022/10/01 06:42 UTC NOAA

TAF KPHF 010539Z 0106/0206 05009KT P6SM VCSH BKN007
FM010800 06007KT P6SM VCSH BKN010
FM011400 16007KT P6SM BKN020
FM011500 21007KT P6SM BKN025
FM012000 21008KT P6SM BKN035
FM020000 24004KT P6SM SCT060

Example: see airport list